Westboro, Ohio
Current Conditions -  °F | °C
As of 6:54 AM on Monday 24 Nov 2014 (Local Time) from KILN Reporting Station
Broken Clouds Broken Clouds  
Wind Chill: 58°   Ceiling: 3200
Heat Index: 58°   Visibility: 10mi
Dew Point: 53°   Wind: 20mph
Humidity: 84%   Direction: 190°S
Pressure: 29.33"   Gusts: 32mph
Location:  39.2883°N, 83.8861°W
Report Text: KILN 241154Z AUTO 19017G28KT 10SM FEW021 SCT026 BKN032 14/12 A2933 RMK AO2 PK WND 19029/1138 SLP933 60002 70037 T01440117 10150 20139 58005
Loading
Personal Weather Stations






























Interactive Weather Map New forecast layout! Learn more

10-Day Weather Forecast

Advertisements
Track Severe Weather on mobile